Time;durP1;ratioP1;P1;durP2;ratioP2;P2;SDS_P1;SDS_P2;PMS_P1;PMS_P2;Temp;Humidity;BMP_temperature;BMP_pressure;BME280_temperature;BME280_humidity;BME280_pressure;Samples;Min_cycle;Max_cycle;Signal;HPM_P1;HPM_P2
2022/01/08 00:00:28;;;;;;;9.55;8.48;;;3.40;99.90;;;;;;5027041;28;20386;-46
2022/01/08 00:02:54;;;;;;;13.25;8.10;;;3.40;99.90;;;;;;5027682;28;20505;-47
2022/01/08 00:05:20;;;;;;;9.95;7.78;;;3.30;99.90;;;;;;5040424;28;20025;-46
2022/01/08 00:07:46;;;;;;;10.27;7.43;;;3.40;99.90;;;;;;5050819;28;20032;-46
2022/01/08 00:10:12;;;;;;;10.18;6.60;;;3.40;99.90;;;;;;5050082;28;20400;-46
2022/01/08 00:12:38;;;;;;;8.23;6.68;;;3.40;99.90;;;;;;5051065;28;20094;-49
2022/01/08 00:15:06;;;;;;;11.00;6.57;;;3.30;99.90;;;;;;5050382;28;20040;-48
2022/01/08 00:17:31;;;;;;;8.98;6.88;;;3.30;99.90;;;;;;5051216;28;20469;-51
2022/01/08 00:19:57;;;;;;;9.48;7.25;;;3.30;99.90;;;;;;5050051;28;20032;-49
2022/01/08 00:22:23;;;;;;;11.77;6.72;;;3.30;99.90;;;;;;5050851;28;20399;-46
2022/01/08 00:24:52;;;;;;;9.52;6.78;;;3.30;99.90;;;;;;5050708;28;20056;-49
2022/01/08 00:27:27;;;;;;;9.07;6.18;;;3.30;99.90;;;;;;5050547;28;20017;-47
2022/01/08 00:29:52;;;;;;;8.63;6.73;;;3.30;99.90;;;;;;5050096;28;20365;-48
2022/01/08 00:32:18;;;;;;;7.50;5.60;;;3.30;99.90;;;;;;5050442;28;20021;-48
2022/01/08 00:34:44;;;;;;;7.65;5.75;;;3.30;99.90;;;;;;5050511;28;20024;-47
2022/01/08 00:37:10;;;;;;;7.07;6.05;;;3.30;99.90;;;;;;5051621;28;20025;-47
2022/01/08 00:39:36;;;;;;;11.90;5.95;;;3.30;99.90;;;;;;5050103;28;20059;-45
2022/01/08 00:42:02;;;;;;;5.82;5.18;;;3.20;99.90;;;;;;5050374;28;20025;-48
2022/01/08 00:44:28;;;;;;;8.30;5.82;;;3.70;99.90;;;;;;5050364;28;20033;-44
2022/01/08 00:46:53;;;;;;;9.05;5.72;;;3.40;99.90;;;;;;5050295;28;20082;-46
2022/01/08 00:49:19;;;;;;;7.82;5.70;;;3.40;99.90;;;;;;5050260;28;20029;-50
2022/01/08 00:51:44;;;;;;;7.65;4.90;;;3.50;99.90;;;;;;5050577;28;20382;-48
2022/01/08 00:54:10;;;;;;;6.65;5.35;;;3.40;99.90;;;;;;5050640;28;20025;-51
2022/01/08 00:56:35;;;;;;;5.63;4.93;;;3.40;99.90;;;;;;5050253;28;20043;-48
2022/01/08 00:59:03;;;;;;;9.45;5.18;;;3.50;99.90;;;;;;5049079;28;20029;-47
2022/01/08 01:01:28;;;;;;;7.75;5.07;;;3.40;99.90;;;;;;5050071;28;20435;-48
2022/01/08 01:03:54;;;;;;;5.88;4.75;;;3.40;99.90;;;;;;5049992;28;20048;-47
2022/01/08 01:06:19;;;;;;;6.93;5.20;;;3.40;99.90;;;;;;5050308;28;20040;-48
2022/01/08 01:08:45;;;;;;;6.22;4.93;;;3.60;99.90;;;;;;5050362;28;20036;-47
2022/01/08 01:11:10;;;;;;;7.20;5.28;;;3.60;99.90;;;;;;5050459;28;20035;-49
2022/01/08 01:13:36;;;;;;;8.27;5.50;;;3.20;99.90;;;;;;5085557;22;20040;-46
2022/01/08 01:16:02;;;;;;;8.88;6.50;;;3.40;99.90;;;;;;5089984;28;20050;-48
2022/01/08 01:18:28;;;;;;;9.45;6.90;;;3.40;99.90;;;;;;5093463;28;20076;-50
2022/01/08 01:20:53;;;;;;;6.93;4.82;;;3.40;99.90;;;;;;5092807;28;20024;-45
2022/01/08 01:23:26;;;;;;;6.80;5.38;;;3.30;99.90;;;;;;5093052;28;20119;-46
2022/01/08 01:25:57;;;;;;;10.25;5.63;;;3.30;99.90;;;;;;5092666;28;20085;-49
2022/01/08 01:47:02;;;;;;;8.85;5.78;;;3.40;99.90;;;;;;5092864;28;20029;-49
2022/01/08 01:49:31;;;;;;;12.10;5.70;;;3.40;99.90;;;;;;5092322;28;20024;-45
2022/01/08 01:51:59;;;;;;;10.73;6.10;;;3.40;99.90;;;;;;5092877;28;20070;-44
2022/01/08 01:54:26;;;;;;;6.82;5.75;;;3.40;99.90;;;;;;5092768;28;20042;-45
2022/01/08 01:56:52;;;;;;;7.57;5.05;;;3.30;99.90;;;;;;5092621;28;20290;-45
2022/01/08 01:59:17;;;;;;;8.80;5.80;;;3.20;99.90;;;;;;5092329;28;20035;-46
2022/01/08 02:01:43;;;;;;;7.60;5.75;;;3.40;99.90;;;;;;5092833;28;20031;-46
2022/01/08 02:04:08;;;;;;;7.38;5.07;;;3.40;99.90;;;;;;5092574;28;20024;-47
2022/01/08 02:06:34;;;;;;;6.95;5.85;;;3.40;99.90;;;;;;5092368;28;20092;-46
2022/01/08 02:08:59;;;;;;;10.77;5.47;;;3.10;99.90;;;;;;5092605;28;20016;-45
2022/01/08 02:11:25;;;;;;;10.90;5.68;;;3.10;99.90;;;;;;5092287;28;20020;-45
2022/01/08 02:13:51;;;;;;;6.03;5.28;;;3.00;99.90;;;;;;5074020;28;20035;-49
2022/01/08 02:16:17;;;;;;;8.40;5.85;;;3.00;99.90;;;;;;5092280;28;20111;-43
2022/01/08 02:18:47;;;;;;;9.32;5.60;;;3.00;99.90;;;;;;5092400;28;20103;-46
2022/01/08 02:21:14;;;;;;;6.80;5.30;;;3.00;99.90;;;;;;5092104;28;20511;-47
2022/01/08 02:23:41;;;;;;;10.63;5.78;;;2.90;99.90;;;;;;5092150;28;20058;-46
2022/01/08 02:26:09;;;;;;;8.50;6.20;;;3.00;99.90;;;;;;5092132;28;20028;-46
2022/01/08 02:28:36;;;;;;;7.38;5.68;;;3.00;99.90;;;;;;5091856;28;20024;-47
2022/01/08 02:31:02;;;;;;;5.00;4.50;;;3.00;99.90;;;;;;5091637;28;20085;-47
2022/01/08 02:33:29;;;;;;;7.85;5.05;;;3.00;99.90;;;;;;5091743;28;20036;-46
2022/01/08 02:35:55;;;;;;;6.30;4.35;;;3.10;99.90;;;;;;5092114;28;20426;-48
2022/01/08 02:38:21;;;;;;;4.75;4.18;;;3.20;99.90;;;;;;5091927;28;20391;-46
2022/01/08 02:40:55;;;;;;;9.23;5.35;;;3.30;99.90;;;;;;5091365;28;20395;-45
2022/01/08 02:43:23;;;;;;;4.90;3.83;;;3.40;99.90;;;;;;5091482;28;20020;-47
2022/01/08 02:45:48;;;;;;;4.93;3.75;;;3.30;99.90;;;;;;5091148;28;20016;-49
2022/01/08 02:48:14;;;;;;;6.63;4.00;;;3.30;99.90;;;;;;5091206;28;20497;-45
2022/01/08 02:50:39;;;;;;;6.55;4.30;;;3.30;99.90;;;;;;5091228;28;20032;-45
2022/01/08 02:53:05;;;;;;;5.38;4.22;;;3.30;99.90;;;;;;5091513;28;20020;-48
2022/01/08 02:55:31;;;;;;;5.65;3.67;;;3.30;99.90;;;;;;5091605;28;20028;-48
2022/01/08 02:57:56;;;;;;;5.82;3.92;;;3.20;99.90;;;;;;5091283;28;20044;-46
2022/01/08 03:00:22;;;;;;;5.60;3.55;;;3.20;99.90;;;;;;5091254;28;20028;-48
2022/01/08 03:02:51;;;;;;;6.95;4.35;;;3.20;99.90;;;;;;5091547;28;20035;-48
2022/01/08 03:05:17;;;;;;;4.78;4.38;;;3.10;99.90;;;;;;5091223;28;20024;-45
2022/01/08 03:07:45;;;;;;;5.32;4.47;;;3.00;99.90;;;;;;5091178;28;20479;-46
2022/01/08 03:10:14;;;;;;;7.13;4.82;;;3.00;99.90;;;;;;5091361;28;20025;-50
2022/01/08 03:12:43;;;;;;;4.93;4.47;;;3.00;99.90;;;;;;5091203;28;20245;-47
2022/01/08 03:15:15;;;;;;;6.40;5.20;;;2.90;99.90;;;;;;5091040;28;20028;-47
2022/01/08 03:17:41;;;;;;;7.82;5.38;;;2.70;99.90;;;;;;5091173;28;20032;-47
2022/01/08 03:20:11;;;;;;;6.10;4.80;;;2.50;99.90;;;;;;5090869;28;20479;-50
2022/01/08 03:22:38;;;;;;;6.55;5.07;;;2.40;99.90;;;;;;5091377;28;20107;-49
2022/01/08 03:25:06;;;;;;;9.70;5.15;;;2.40;99.90;;;;;;5090686;28;20020;-47
2022/01/08 03:27:32;;;;;;;8.63;5.72;;;2.40;99.90;;;;;;5091051;28;20030;-45
2022/01/08 03:29:58;;;;;;;7.22;6.30;;;2.40;99.90;;;;;;5090816;28;20028;-50
2022/01/08 03:32:24;;;;;;;4.88;4.35;;;2.20;99.90;;;;;;5091097;28;20481;-46
2022/01/08 03:34:50;;;;;;;4.07;3.75;;;2.10;99.90;;;;;;5091128;28;20024;-46
2022/01/08 03:37:16;;;;;;;3.60;3.30;;;1.80;99.90;;;;;;5091356;28;20032;-47
2022/01/08 03:39:42;;;;;;;3.53;3.22;;;1.80;99.90;;;;;;5091837;28;20028;-49
2022/01/08 03:42:07;;;;;;;3.45;3.25;;;1.60;99.90;;;;;;5094507;28;20083;-51
2022/01/08 03:44:33;;;;;;;3.35;2.90;;;1.60;99.90;;;;;;5096333;28;20048;-50
2022/01/08 03:47:21;;;;;;;2.97;2.78;;;1.60;99.90;;;;;;5095550;28;20047;-51
2022/01/08 03:49:44;;;;;;;3.10;2.90;;;1.70;99.90;;;;;;5094906;28;20438;-45
2022/01/08 03:52:12;;;;;;;3.38;3.13;;;1.60;99.90;;;;;;5094894;28;20028;-46
2022/01/08 03:54:37;;;;;;;3.17;2.97;;;1.70;99.90;;;;;;5094717;28;20028;-46
2022/01/08 03:57:03;;;;;;;3.80;3.42;;;1.70;99.90;;;;;;5094790;28;20402;-42
2022/01/08 03:59:28;;;;;;;3.78;3.47;;;1.70;99.90;;;;;;5094161;28;20031;-45
2022/01/08 04:01:54;;;;;;;3.50;3.20;;;1.60;99.90;;;;;;5094587;28;20032;-44
2022/01/08 04:04:19;;;;;;;3.78;3.20;;;1.60;99.90;;;;;;5076114;28;20020;-45
2022/01/08 04:06:45;;;;;;;3.60;3.30;;;1.60;99.90;;;;;;5094395;28;20020;-44
2022/01/08 04:09:11;;;;;;;5.55;3.45;;;1.60;99.90;;;;;;5094517;28;20451;-48
2022/01/08 04:11:36;;;;;;;3.00;2.72;;;1.60;99.90;;;;;;5094520;28;20059;-45
2022/01/08 04:14:02;;;;;;;2.78;2.58;;;1.60;99.90;;;;;;5075913;28;20115;-47
2022/01/08 04:16:31;;;;;;;3.95;3.10;;;1.60;99.90;;;;;;5094362;28;20437;-45
2022/01/08 04:18:58;;;;;;;2.80;2.60;;;1.60;99.90;;;;;;5094218;28;20487;-49
2022/01/08 04:23:57;;;;;;;2.80;2.60;;;1.50;99.90;;;;;;5094244;28;20024;-47
2022/01/08 04:26:23;;;;;;;2.90;2.70;;;1.50;99.90;;;;;;5093591;28;20170;-43
2022/01/08 04:28:52;;;;;;;2.78;2.58;;;1.50;99.90;;;;;;5094083;28;20451;-45
2022/01/08 04:31:18;;;;;;;3.13;2.83;;;1.60;99.90;;;;;;5093776;28;20039;-44
2022/01/08 04:33:43;;;;;;;2.95;2.75;;;1.70;99.90;;;;;;5093890;28;20024;-47
2022/01/08 04:36:09;;;;;;;2.63;2.45;;;1.80;99.90;;;;;;5093791;28;20058;-43
2022/01/08 04:38:34;;;;;;;3.47;3.17;;;1.90;99.90;;;;;;5093919;28;20442;-45
2022/01/08 04:41:00;;;;;;;3.15;2.95;;;2.00;99.90;;;;;;5093707;28;20027;-47
2022/01/08 04:43:28;;;;;;;2.67;2.47;;;2.00;99.90;;;;;;5093623;28;20488;-45
2022/01/08 04:45:53;;;;;;;2.15;2.05;;;2.00;99.90;;;;;;5093748;28;20021;-45
2022/01/08 04:48:19;;;;;;;2.55;2.35;;;2.00;99.90;;;;;;5093566;28;20476;-45
2022/01/08 04:50:45;;;;;;;1.85;1.75;;;2.10;99.90;;;;;;5075120;28;20395;-45
2022/01/08 04:53:10;;;;;;;2.00;1.88;;;2.10;99.90;;;;;;5074819;28;20542;-45
2022/01/08 04:55:36;;;;;;;2.60;2.15;;;2.10;99.90;;;;;;5093621;28;20067;-47
2022/01/08 04:58:03;;;;;;;2.92;2.72;;;2.10;99.90;;;;;;5093484;28;20439;-44
2022/01/08 05:00:29;;;;;;;2.78;2.58;;;2.20;99.90;;;;;;5093425;28;20375;-48
2022/01/08 05:02:54;;;;;;;2.97;2.78;;;2.10;99.90;;;;;;5093398;28;20028;-46
2022/01/08 05:05:20;;;;;;;3.28;2.97;;;2.10;99.90;;;;;;5093416;28;20028;-45
2022/01/08 05:07:46;;;;;;;3.85;3.20;;;2.20;99.90;;;;;;5093546;28;20454;-48
2022/01/08 05:10:12;;;;;;;3.00;2.80;;;2.20;99.90;;;;;;5093010;28;20149;-47
2022/01/08 05:12:38;;;;;;;2.55;2.35;;;2.20;99.90;;;;;;5093424;28;20024;-46
2022/01/08 05:15:05;;;;;;;2.00;1.90;;;2.20;99.90;;;;;;5092987;28;20046;-47
2022/01/08 05:17:35;;;;;;;2.00;1.90;;;2.10;99.90;;;;;;5092887;28;20035;-48
2022/01/08 05:20:06;;;;;;;2.00;1.90;;;2.10;99.90;;;;;;5092741;28;20077;-45
2022/01/08 05:22:51;;;;;;;2.10;2.00;;;2.10;99.90;;;;;;5093045;28;20028;-44
2022/01/08 05:25:19;;;;;;;1.60;1.50;;;2.20;99.90;;;;;;5092960;28;20173;-47
2022/01/08 05:27:44;;;;;;;1.88;1.70;;;2.30;99.90;;;;;;5074863;28;20499;-45
2022/01/08 05:30:13;;;;;;;1.58;1.48;;;2.40;99.90;;;;;;5092562;28;20039;-44
2022/01/08 05:32:38;;;;;;;1.38;1.27;;;2.40;99.90;;;;;;5093067;28;20479;-45
2022/01/08 05:35:04;;;;;;;1.00;1.00;;;2.50;99.90;;;;;;5092697;28;20030;-45
2022/01/08 05:37:30;;;;;;;1.30;1.20;;;2.50;99.90;;;;;;5092551;28;20487;-45
2022/01/08 05:39:56;;;;;;;1.42;1.33;;;2.50;99.90;;;;;;5074274;28;20028;-45
2022/01/08 05:42:22;;;;;;;1.48;1.48;;;2.60;99.90;;;;;;5077319;28;20571;-49
2022/01/08 05:44:47;;;;;;;1.15;1.02;;;2.60;99.90;;;;;;5095802;28;20042;-50
2022/01/08 05:47:14;;;;;;;1.05;1.05;;;2.60;99.90;;;;;;5093041;28;20043;-45
2022/01/08 05:49:39;;;;;;;0.98;0.98;;;2.70;99.90;;;;;;5092582;28;20017;-46
2022/01/08 05:52:07;;;;;;;1.48;0.98;;;2.70;99.90;;;;;;5075133;28;20020;-45
2022/01/08 05:54:32;;;;;;;1.05;1.05;;;2.70;99.90;;;;;;5092674;28;20012;-50
2022/01/08 05:56:58;;;;;;;1.25;1.23;;;2.80;99.90;;;;;;5092698;28;20506;-47
2022/01/08 05:59:26;;;;;;;1.83;1.17;;;2.80;99.90;;;;;;5092299;28;20056;-47
2022/01/08 06:01:53;;;;;;;2.63;1.17;;;2.80;99.90;;;;;;5092373;28;20024;-46
2022/01/08 06:04:18;;;;;;;1.15;1.05;;;2.80;99.90;;;;;;5091258;28;20024;-51
2022/01/08 06:06:44;;;;;;;1.65;1.20;;;2.80;99.90;;;;;;5092237;28;20035;-49
2022/01/08 06:09:09;;;;;;;1.27;1.17;;;2.80;99.90;;;;;;5092250;28;20051;-45
2022/01/08 06:11:35;;;;;;;1.30;1.20;;;2.90;99.90;;;;;;5092250;28;20047;-45
2022/01/08 06:14:02;;;;;;;1.30;1.20;;;2.90;99.90;;;;;;5091861;28;20024;-45
2022/01/08 06:16:33;;;;;;;1.10;1.10;;;2.80;99.90;;;;;;5091948;28;20475;-43
2022/01/08 06:19:00;;;;;;;1.60;1.50;;;2.90;99.90;;;;;;5092107;28;20518;-47
2022/01/08 06:21:25;;;;;;;2.22;1.88;;;2.80;99.90;;;;;;5091665;28;20059;-47
2022/01/08 06:23:51;;;;;;;1.45;1.38;;;2.80;99.90;;;;;;5073875;28;20056;-45
2022/01/08 06:26:16;;;;;;;3.95;2.10;;;2.80;99.90;;;;;;5091615;28;20466;-45
2022/01/08 06:28:41;;;;;;;2.30;2.13;;;2.80;99.90;;;;;;5073645;28;20020;-49
2022/01/08 06:31:07;;;;;;;3.13;2.78;;;2.90;99.90;;;;;;5091423;28;20391;-47
2022/01/08 06:33:32;;;;;;;2.72;2.50;;;2.90;99.90;;;;;;5092032;28;20024;-45
2022/01/08 06:35:58;;;;;;;3.08;2.70;;;3.00;99.90;;;;;;5073626;28;20117;-46
2022/01/08 06:38:23;;;;;;;3.83;3.17;;;3.00;99.90;;;;;;5074231;28;20423;-46
2022/01/08 06:40:49;;;;;;;2.88;2.67;;;3.00;99.90;;;;;;5091276;28;20154;-46
2022/01/08 06:43:15;;;;;;;5.75;3.38;;;3.10;99.90;;;;;;5073601;28;20156;-47
2022/01/08 06:45:40;;;;;;;4.53;3.45;;;3.00;99.90;;;;;;5091643;28;20044;-47
2022/01/08 06:48:06;;;;;;;3.08;2.80;;;3.00;99.90;;;;;;5091625;28;20034;-45
2022/01/08 06:50:31;;;;;;;8.10;3.60;;;3.00;99.90;;;;;;5091221;28;20032;-44
2022/01/08 06:52:58;;;;;;;3.55;3.25;;;2.80;99.90;;;;;;5091542;28;20097;-45
2022/01/08 06:55:24;;;;;;;4.43;3.78;;;2.80;99.90;;;;;;5091440;28;20027;-49
2022/01/08 06:57:49;;;;;;;5.78;4.82;;;2.70;99.90;;;;;;5091624;28;20499;-45
2022/01/08 07:00:15;;;;;;;4.82;4.32;;;2.80;99.90;;;;;;5072843;28;20024;-45
2022/01/08 07:02:40;;;;;;;7.72;4.68;;;2.80;99.90;;;;;;5091427;28;20027;-45
2022/01/08 07:05:06;;;;;;;6.63;5.65;;;2.80;99.90;;;;;;5091388;28;20101;-47
2022/01/08 07:07:32;;;;;;;8.88;5.50;;;2.70;99.90;;;;;;5092047;28;20032;-46
2022/01/08 07:09:57;;;;;;;7.60;5.35;;;2.60;99.90;;;;;;5090968;28;20077;-45
2022/01/08 07:12:23;;;;;;;7.32;5.43;;;2.60;99.90;;;;;;5072887;28;20025;-47
2022/01/08 07:14:48;;;;;;;7.25;4.60;;;2.50;99.90;;;;;;5090432;22;20090;-46
2022/01/08 07:17:14;;;;;;;8.90;5.35;;;2.50;99.90;;;;;;5055121;28;20044;-47
2022/01/08 07:19:40;;;;;;;9.35;6.03;;;2.50;99.90;;;;;;5036668;28;20025;-46
2022/01/08 07:22:05;;;;;;;8.13;6.50;;;2.50;99.90;;;;;;5036817;28;20025;-50
2022/01/08 07:24:31;;;;;;;8.45;6.50;;;2.50;99.90;;;;;;5054425;28;20108;-47
2022/01/08 07:26:56;;;;;;;9.90;6.32;;;2.50;99.90;;;;;;5054627;28;20033;-47
2022/01/08 07:29:22;;;;;;;8.98;6.75;;;2.50;99.90;;;;;;5054253;28;20025;-46
2022/01/08 07:31:47;;;;;;;11.32;6.43;;;2.50;99.90;;;;;;5054678;28;20033;-47
2022/01/08 07:34:13;;;;;;;11.88;7.43;;;2.60;99.90;;;;;;5054863;28;20028;-48
2022/01/08 07:36:38;;;;;;;15.55;7.35;;;2.50;99.90;;;;;;5054688;28;20021;-50
2022/01/08 07:39:04;;;;;;;12.05;7.57;;;2.50;99.90;;;;;;5054637;28;20416;-45
2022/01/08 07:41:29;;;;;;;10.35;6.78;;;2.60;99.90;;;;;;5054567;28;20040;-48
2022/01/08 07:43:55;;;;;;;10.07;6.75;;;2.70;99.90;;;;;;5054443;28;20028;-50
2022/01/08 07:46:21;;;;;;;8.05;6.88;;;2.70;99.90;;;;;;5054308;28;20108;-48
2022/01/08 07:48:46;;;;;;;8.85;6.40;;;2.80;99.90;;;;;;5054617;28;20075;-47
2022/01/08 07:51:12;;;;;;;10.90;6.38;;;3.00;99.90;;;;;;5054480;28;20025;-46
2022/01/08 07:53:38;;;;;;;10.88;7.93;;;3.10;99.90;;;;;;5054536;28;20028;-47
2022/01/08 07:56:04;;;;;;;12.43;7.82;;;3.10;99.90;;;;;;5054424;28;20037;-48
2022/01/08 07:58:30;;;;;;;11.95;7.82;;;3.00;99.90;;;;;;5036234;28;20048;-46
2022/01/08 08:00:57;;;;;;;10.48;7.70;;;3.00;99.90;;;;;;5054277;28;20075;-49
2022/01/08 08:03:22;;;;;;;23.63;9.15;;;3.00;99.90;;;;;;5054266;28;20056;-47
2022/01/08 08:05:48;;;;;;;15.30;8.55;;;3.00;99.90;;;;;;5054076;28;20601;-50
2022/01/08 08:08:18;;;;;;;11.68;8.05;;;2.90;99.90;;;;;;5054339;28;20072;-48
2022/01/08 08:10:47;;;;;;;10.25;7.43;;;3.00;99.90;;;;;;5054005;28;20025;-46
2022/01/08 08:13:13;;;;;;;17.52;7.80;;;3.00;99.90;;;;;;5036449;28;20504;-48
2022/01/08 08:15:39;;;;;;;10.30;7.15;;;3.00;99.90;;;;;;5053999;28;20428;-46
2022/01/08 08:18:05;;;;;;;11.85;7.20;;;3.10;99.90;;;;;;5054052;28;20052;-47
2022/01/08 08:20:30;;;;;;;11.23;6.53;;;3.10;99.90;;;;;;5053500;28;20071;-46
2022/01/08 08:22:56;;;;;;;8.38;6.28;;;3.10;99.90;;;;;;5054319;28;20075;-47
2022/01/08 08:25:21;;;;;;;13.15;8.00;;;3.00;99.90;;;;;;5054529;28;20100;-46
2022/01/08 08:27:47;;;;;;;10.73;5.88;;;3.00;99.90;;;;;;5053250;28;20040;-47
2022/01/08 08:30:13;;;;;;;11.63;6.65;;;3.10;99.90;;;;;;5054361;28;20021;-45
2022/01/08 08:32:39;;;;;;;8.95;5.80;;;3.10;99.90;;;;;;5035867;28;20506;-46
2022/01/08 08:35:05;;;;;;;8.52;5.85;;;3.10;99.90;;;;;;5053372;28;20025;-48
2022/01/08 08:37:32;;;;;;;8.68;5.55;;;3.10;99.90;;;;;;5053506;28;20025;-50
2022/01/08 08:39:58;;;;;;;9.93;5.72;;;3.10;99.90;;;;;;5053473;28;20032;-47
2022/01/08 08:42:23;;;;;;;11.70;6.22;;;3.10;99.90;;;;;;5053475;28;20025;-46
2022/01/08 08:44:49;;;;;;;13.95;6.03;;;3.10;99.90;;;;;;5053564;28;20032;-45
2022/01/08 08:47:14;;;;;;;8.90;4.95;;;3.10;99.90;;;;;;5035523;28;20036;-46
2022/01/08 08:49:40;;;;;;;9.30;4.15;;;3.10;99.90;;;;;;5053623;28;20110;-47
2022/01/08 08:52:06;;;;;;;9.20;3.75;;;3.10;99.90;;;;;;5053764;28;20388;-47
2022/01/08 08:54:31;;;;;;;8.98;3.60;;;3.10;99.90;;;;;;5053294;28;20503;-46
2022/01/08 08:56:57;;;;;;;5.35;3.30;;;3.20;99.90;;;;;;5053605;28;20029;-46
2022/01/08 08:59:24;;;;;;;5.30;4.45;;;3.20;99.90;;;;;;5052919;28;20111;-50
2022/01/08 09:01:49;;;;;;;10.57;4.00;;;3.20;99.90;;;;;;5053218;28;20063;-47
2022/01/08 09:04:15;;;;;;;4.97;3.50;;;3.40;99.90;;;;;;5053334;28;20037;-47
2022/01/08 09:06:40;;;;;;;4.57;3.38;;;3.70;99.90;;;;;;5053145;28;20052;-50
2022/01/08 09:09:06;;;;;;;6.63;3.50;;;3.80;99.90;;;;;;5052716;28;20074;-46
2022/01/08 09:11:32;;;;;;;10.15;4.80;;;3.70;99.90;;;;;;5052811;28;20124;-48
2022/01/08 09:13:58;;;;;;;12.75;5.75;;;3.50;99.90;;;;;;5034880;28;20021;-48
2022/01/08 09:16:23;;;;;;;10.02;3.60;;;3.40;99.90;;;;;;5052720;28;20500;-46
2022/01/08 09:18:49;;;;;;;10.38;4.35;;;3.30;99.90;;;;;;5052694;28;20029;-51
2022/01/08 09:21:15;;;;;;;7.70;4.18;;;3.30;99.90;;;;;;5052122;28;20544;-52
2022/01/08 09:23:40;;;;;;;7.38;3.65;;;3.20;99.90;;;;;;5052488;28;20059;-47
2022/01/08 09:26:06;;;;;;;4.40;3.15;;;3.20;99.90;;;;;;5052426;28;20228;-48
2022/01/08 09:28:32;;;;;;;9.45;3.80;;;3.20;99.90;;;;;;5052340;28;20522;-48
2022/01/08 09:30:59;;;;;;;7.95;3.45;;;3.20;99.90;;;;;;5052297;28;20107;-50
2022/01/08 09:33:25;;;;;;;5.45;3.30;;;3.20;99.90;;;;;;5052491;28;20481;-45
2022/01/08 09:35:51;;;;;;;4.85;2.80;;;3.30;99.90;;;;;;5052469;28;20459;-46
2022/01/08 09:38:17;;;;;;;4.70;2.80;;;3.50;99.90;;;;;;5051526;28;20108;-49
2022/01/08 09:40:43;;;;;;;9.00;3.00;;;3.70;99.90;;;;;;5051814;28;20029;-49
2022/01/08 09:43:09;;;;;;;5.43;2.95;;;3.80;99.90;;;;;;5052633;28;20472;-46
2022/01/08 09:45:34;;;;;;;8.32;3.25;;;4.00;99.90;;;;;;5034417;28;20083;-49
2022/01/08 09:48:00;;;;;;;8.38;3.25;;;4.10;99.90;;;;;;5034151;28;20026;-47
2022/01/08 09:50:26;;;;;;;9.23;4.07;;;4.10;99.90;;;;;;5051818;28;20024;-47
2022/01/08 09:52:57;;;;;;;12.50;4.90;;;4.10;99.90;;;;;;5034261;28;20095;-46
2022/01/08 09:55:27;;;;;;;9.80;5.20;;;4.10;99.90;;;;;;5051976;28;20020;-47
2022/01/08 09:57:53;;;;;;;9.43;5.00;;;3.90;99.90;;;;;;5034509;28;20027;-46
2022/01/08 10:00:20;;;;;;;8.40;4.65;;;3.90;99.90;;;;;;5041204;28;20042;-46
2022/01/08 10:02:46;;;;;;;6.07;3.97;;;3.80;99.90;;;;;;5051451;28;20521;-44
2022/01/08 10:05:15;;;;;;;6.40;3.38;;;4.00;99.90;;;;;;5051958;28;20040;-45
2022/01/08 10:07:41;;;;;;;13.23;3.47;;;3.90;99.90;;;;;;5050699;28;20381;-46
2022/01/08 10:10:17;;;;;;;11.15;4.47;;;3.80;99.90;;;;;;5049956;28;20029;-45
2022/01/08 10:12:55;;;;;;;6.97;3.00;;;3.70;99.90;;;;;;5051185;28;20099;-47
2022/01/08 10:18:39;;;;;;;10.82;3.35;;;4.10;99.90;;;;;;5051403;28;20519;-45
2022/01/08 10:21:21;;;;;;;5.88;2.50;;;4.50;99.90;;;;;;5050803;28;20029;-47
2022/01/08 10:23:49;;;;;;;3.85;2.42;;;5.00;99.90;;;;;;5050298;28;20032;-45
2022/01/08 10:26:18;;;;;;;7.15;3.20;;;5.30;99.90;;;;;;5051623;28;20028;-46
2022/01/08 10:28:43;;;;;;;9.65;3.33;;;5.60;99.90;;;;;;5042460;28;20032;-46
2022/01/08 10:31:24;;;;;;;5.68;2.92;;;5.70;99.90;;;;;;5051300;28;20025;-49
2022/01/08 10:33:55;;;;;;;6.32;3.13;;;;;;;;;;5057376;28;20095;-46
2022/01/08 10:36:32;;;;;;;6.25;2.75;;;6.60;99.90;;;;;;5050617;28;20112;-49
2022/01/08 10:39:02;;;;;;;4.65;2.20;;;7.00;99.90;;;;;;5050305;28;20116;-49
2022/01/08 10:41:28;;;;;;;5.25;2.78;;;7.40;99.90;;;;;;5050664;28;20111;-50
2022/01/08 10:44:07;;;;;;;5.97;2.83;;;7.60;99.90;;;;;;5050881;28;20029;-60
2022/01/08 10:46:33;;;;;;;13.32;2.70;;;7.60;99.90;;;;;;5051034;28;20061;-48
2022/01/08 10:48:59;;;;;;;8.27;2.80;;;7.30;99.90;;;;;;5050908;28;20059;-50
2022/01/08 10:51:26;;;;;;;3.28;2.22;;;6.80;99.90;;;;;;5049911;28;20392;-48
2022/01/08 10:53:58;;;;;;;4.85;3.25;;;6.60;99.90;;;;;;5032375;28;20101;-47
2022/01/08 10:56:44;;;;;;;5.95;2.20;;;6.20;99.90;;;;;;5051183;28;20021;-49
2022/01/08 10:59:17;;;;;;;6.28;3.08;;;5.70;99.90;;;;;;5050169;28;20029;-48
2022/01/08 11:01:50;;;;;;;6.15;2.35;;;5.50;99.90;;;;;;5030923;28;20033;-48
2022/01/08 11:04:32;;;;;;;7.82;3.17;;;5.20;99.90;;;;;;5048298;28;20033;-47
2022/01/08 11:07:00;;;;;;;6.00;3.17;;;5.20;99.90;;;;;;5050036;28;20037;-48
2022/01/08 11:09:27;;;;;;;5.50;2.90;;;5.10;99.90;;;;;;5049856;28;20017;-46
2022/01/08 11:11:55;;;;;;;10.63;3.65;;;5.00;99.90;;;;;;5050789;28;20453;-45
2022/01/08 11:17:34;;;;;;;7.40;4.00;;;4.80;99.90;;;;;;5008862;28;20092;-47
2022/01/08 11:20:07;;;;;;;5.35;3.22;;;4.70;99.90;;;;;;5008350;28;20117;-46
2022/01/08 11:22:34;;;;;;;4.53;3.65;;;4.60;99.90;;;;;;5031451;28;20519;-48
2022/01/08 11:25:23;;;;;;;7.40;3.80;;;4.60;99.90;;;;;;5050646;28;20041;-47
2022/01/08 11:28:01;;;;;;;16.30;3.97;;;4.60;99.90;;;;;;5050530;28;20027;-47
2022/01/08 11:30:49;;;;;;;9.65;3.67;;;4.60;99.90;;;;;;5050332;28;20487;-46
2022/01/08 11:33:28;;;;;;;4.00;2.50;;;4.60;99.90;;;;;;5042460;28;20087;-50
2022/01/08 11:35:55;;;;;;;5.90;3.03;;;4.60;99.90;;;;;;5050748;28;20018;-47
2022/01/08 11:38:23;;;;;;;9.05;3.92;;;4.50;99.90;;;;;;5050628;28;20025;-45
2022/01/08 11:40:51;;;;;;;11.20;3.00;;;4.50;99.90;;;;;;5050136;28;20396;-46
2022/01/08 11:43:20;;;;;;;6.03;2.97;;;4.50;99.90;;;;;;5050586;28;20041;-46
2022/01/08 11:45:56;;;;;;;9.25;3.55;;;4.50;99.90;;;;;;5050555;28;20108;-46
2022/01/08 11:48:31;;;;;;;7.15;2.95;;;4.50;99.90;;;;;;5050548;28;20377;-44
2022/01/08 11:50:59;;;;;;;8.50;3.22;;;4.60;99.90;;;;;;5050672;28;20020;-46
2022/01/08 11:53:30;;;;;;;11.30;4.22;;;4.50;99.90;;;;;;5050387;28;20489;-49
2022/01/08 11:55:57;;;;;;;4.70;3.10;;;4.60;99.90;;;;;;5050718;28;20034;-46
2022/01/08 11:58:23;;;;;;;12.00;3.33;;;4.60;99.90;;;;;;5050510;28;20072;-45
2022/01/08 12:01:01;;;;;;;5.53;2.58;;;4.60;99.90;;;;;;5050540;28;20079;-45
2022/01/08 12:03:32;;;;;;;4.75;3.63;;;4.60;99.90;;;;;;5053756;28;20032;-48
2022/01/08 12:05:59;;;;;;;7.88;3.35;;;4.70;99.90;;;;;;5054078;28;20107;-47
2022/01/08 12:08:53;;;;;;;8.88;3.28;;;4.70;99.90;;;;;;5054496;28;20029;-46
2022/01/08 12:11:18;;;;;;;5.72;2.50;;;4.80;99.90;;;;;;5036690;28;20506;-48
2022/01/08 12:13:46;;;;;;;9.02;3.17;;;4.80;99.90;;;;;;5053911;28;20029;-45
2022/01/08 12:16:35;;;;;;;6.88;3.55;;;4.80;99.90;;;;;;5036011;28;20041;-45
2022/01/08 12:19:03;;;;;;;7.97;4.10;;;5.00;99.90;;;;;;5053895;28;20021;-44
2022/01/08 12:21:42;;;;;;;7.00;3.70;;;4.90;99.90;;;;;;5052713;28;20384;-45
2022/01/08 12:24:26;;;;;;;5.43;3.30;;;4.90;99.90;;;;;;5052921;28;20480;-46
2022/01/08 12:26:53;;;;;;;5.38;2.80;;;4.90;99.90;;;;;;5052807;28;20079;-46
2022/01/08 12:29:36;;;;;;;6.13;2.88;;;4.90;99.90;;;;;;5053078;28;20108;-45
2022/01/08 12:32:29;;;;;;;8.50;3.13;;;4.80;99.90;;;;;;5053775;28;20018;-45
2022/01/08 12:35:16;;;;;;;4.03;2.80;;;4.80;99.90;;;;;;5053970;28;20116;-45
2022/01/08 12:37:44;;;;;;;10.55;3.00;;;4.90;99.90;;;;;;5053581;28;20029;-46
2022/01/08 12:40:12;;;;;;;6.22;2.55;;;4.80;99.90;;;;;;5053279;28;20036;-48
2022/01/08 12:42:40;;;;;;;3.22;2.10;;;4.70;99.90;;;;;;5053531;28;20040;-48
2022/01/08 12:45:13;;;;;;;9.30;2.47;;;4.70;99.90;;;;;;5053671;28;20033;-45
2022/01/08 12:47:45;;;;;;;7.82;2.08;;;4.70;99.90;;;;;;5053660;28;20056;-46
2022/01/08 12:50:28;;;;;;;5.13;2.78;;;4.70;99.90;;;;;;5053064;28;20434;-46
2022/01/08 12:53:05;;;;;;;10.63;2.70;;;4.60;99.90;;;;;;5056858;28;20036;-46
2022/01/08 12:55:35;;;;;;;3.80;2.28;;;4.60;99.90;;;;;;5056038;28;20374;-46
2022/01/08 12:58:10;;;;;;;3.92;2.30;;;4.50;99.90;;;;;;5036328;28;20393;-48
2022/01/08 13:00:51;;;;;;;3.85;2.10;;;4.50;99.90;;;;;;5053222;28;20435;-47
2022/01/08 13:03:24;;;;;;;8.02;2.63;;;4.50;99.90;;;;;;5053398;28;20029;-48
2022/01/08 13:05:49;;;;;;;4.40;2.63;;;4.50;99.90;;;;;;5052415;28;20125;-48
2022/01/08 13:08:26;;;;;;;6.43;2.45;;;4.60;99.90;;;;;;5053068;28;20112;-47
2022/01/08 13:10:59;;;;;;;4.60;2.25;;;4.60;99.90;;;;;;5052226;28;20025;-46
2022/01/08 13:13:42;;;;;;;4.53;2.50;;;4.60;99.90;;;;;;5053407;28;20035;-46
2022/01/08 13:16:18;;;;;;;6.43;2.38;;;4.60;99.90;;;;;;5054630;28;20033;-46
2022/01/08 13:18:51;;;;;;;4.75;2.63;;;4.50;99.90;;;;;;5053129;28;20500;-48
2022/01/08 13:21:18;;;;;;;5.75;2.70;;;4.50;99.90;;;;;;5044496;28;20055;-45
2022/01/08 13:23:50;;;;;;;5.82;2.80;;;4.60;99.90;;;;;;5052684;28;20029;-47
2022/01/08 13:26:25;;;;;;;4.97;2.65;;;4.60;99.90;;;;;;5052825;28;20507;-49